YDT weather

Boundary Bay Airport
Vancouver, British Columbia, Canada

Public forecast

Using degrees Celsius for public forecast. Weather courtesy of forecast.io.

Closest aviation weather report (METAR) to Boundary Bay Airport

Closest report is Vancouver International Airport, 9.9 nm (18.3 km) NW. Retrieved 2019/10/21 06:00 UTC (52 minutes ago):

CYVR 210600Z 11006KT 15SM FEW006 BKN016 OVC048 08/07 A3002 RMK SF1SC4SC3 SLP168

Closest aviation forecast (TAF) to Boundary Bay Airport

Closest forecast is Vancouver International Airport, 9.9 nm (18.3 km) NW. Retrieved 2019/10/21 06:42 UTC (10 minutes ago):

TAF CYVR 210538Z 2106/2212 VRB03KT P6SM FEW020 BKN040 TEMPO 2106/2110 5SM -RA BR BKN012 OVC040 FM211000 10008KT P6SM -RA SCT012 OVC040 TEMPO 2111/2121 3SM RA BR BKN008 OVC012 BECMG 2114/2116 16010KT FM212100 10012KT 6SM -RA BR OVC020 FM220400 10010KT P6SM SCT015 OVC040 TEMPO 2204/2212 P6SM -RA BKN015 OVC040 RMK NXT FCST BY 210900Z